sensor_id;sensor_type;location;lat;lon;timestamp;P1;durP1;ratioP1;P2;durP2;ratioP2
36359;SDS011;22388;52.432;20.662;2024-02-26T00:00:23;26.88;;;14.23;;
36359;SDS011;22388;52.432;20.662;2024-02-26T00:02:49;31.80;;;16.63;;
36359;SDS011;22388;52.432;20.662;2024-02-26T00:05:17;29.67;;;16.48;;
36359;SDS011;22388;52.432;20.662;2024-02-26T00:07:42;28.15;;;14.85;;
36359;SDS011;22388;52.432;20.662;2024-02-26T00:10:21;31.35;;;14.52;;
36359;SDS011;22388;52.432;20.662;2024-02-26T00:12:46;26.23;;;14.98;;
36359;SDS011;22388;52.432;20.662;2024-02-26T00:15:12;27.35;;;14.73;;
36359;SDS011;22388;52.432;20.662;2024-02-26T00:17:37;26.13;;;14.43;;
36359;SDS011;22388;52.432;20.662;2024-02-26T00:20:03;23.95;;;15.05;;
36359;SDS011;22388;52.432;20.662;2024-02-26T00:22:41;26.75;;;14.88;;
36359;SDS011;22388;52.432;20.662;2024-02-26T00:25:09;25.90;;;14.50;;
36359;SDS011;22388;52.432;20.662;2024-02-26T00:27:37;27.77;;;15.38;;
36359;SDS011;22388;52.432;20.662;2024-02-26T00:30:04;27.58;;;15.15;;
36359;SDS011;22388;52.432;20.662;2024-02-26T00:32:30;30.27;;;15.13;;
36359;SDS011;22388;52.432;20.662;2024-02-26T00:34:55;26.05;;;13.82;;
36359;SDS011;22388;52.432;20.662;2024-02-26T00:37:21;24.02;;;13.32;;
36359;SDS011;22388;52.432;20.662;2024-02-26T00:39:52;23.73;;;13.38;;
36359;SDS011;22388;52.432;20.662;2024-02-26T00:42:19;26.42;;;13.02;;
36359;SDS011;22388;52.432;20.662;2024-02-26T00:44:44;24.25;;;13.02;;
36359;SDS011;22388;52.432;20.662;2024-02-26T00:47:13;22.33;;;13.00;;
36359;SDS011;22388;52.432;20.662;2024-02-26T00:49:38;22.95;;;12.75;;
36359;SDS011;22388;52.432;20.662;2024-02-26T00:52:04;22.58;;;13.20;;
36359;SDS011;22388;52.432;20.662;2024-02-26T00:54:30;25.58;;;13.02;;
36359;SDS011;22388;52.432;20.662;2024-02-26T00:56:55;22.50;;;13.55;;
36359;SDS011;22388;52.432;20.662;2024-02-26T00:59:20;24.10;;;13.48;;
36359;SDS011;22388;52.432;20.662;2024-02-26T01:01:46;23.60;;;13.70;;
36359;SDS011;22388;52.432;20.662;2024-02-26T01:04:11;25.10;;;14.27;;
36359;SDS011;22388;52.432;20.662;2024-02-26T01:06:37;25.90;;;14.63;;
36359;SDS011;22388;52.432;20.662;2024-02-26T01:09:03;24.83;;;14.10;;
36359;SDS011;22388;52.432;20.662;2024-02-26T01:11:28;29.88;;;14.90;;
36359;SDS011;22388;52.432;20.662;2024-02-26T01:13:54;24.90;;;14.27;;
36359;SDS011;22388;52.432;20.662;2024-02-26T01:16:22;28.88;;;14.65;;
36359;SDS011;22388;52.432;20.662;2024-02-26T01:18:48;22.70;;;14.07;;
36359;SDS011;22388;52.432;20.662;2024-02-26T01:21:13;29.05;;;15.20;;
36359;SDS011;22388;52.432;20.662;2024-02-26T01:23:38;23.38;;;14.77;;
36359;SDS011;22388;52.432;20.662;2024-02-26T01:26:04;26.55;;;14.80;;
36359;SDS011;22388;52.432;20.662;2024-02-26T01:28:30;29.30;;;16.05;;
36359;SDS011;22388;52.432;20.662;2024-02-26T01:30:55;25.83;;;15.20;;
36359;SDS011;22388;52.432;20.662;2024-02-26T01:33:20;29.27;;;15.55;;
36359;SDS011;22388;52.432;20.662;2024-02-26T01:35:46;31.77;;;17.77;;
36359;SDS011;22388;52.432;20.662;2024-02-26T01:38:12;35.25;;;18.95;;
36359;SDS011;22388;52.432;20.662;2024-02-26T01:40:37;35.20;;;20.02;;
36359;SDS011;22388;52.432;20.662;2024-02-26T01:43:02;38.90;;;21.25;;
36359;SDS011;22388;52.432;20.662;2024-02-26T01:45:28;39.53;;;22.58;;
36359;SDS011;22388;52.432;20.662;2024-02-26T01:47:53;39.30;;;23.05;;
36359;SDS011;22388;52.432;20.662;2024-02-26T01:50:19;39.67;;;23.30;;
36359;SDS011;22388;52.432;20.662;2024-02-26T01:52:49;38.45;;;23.23;;
36359;SDS011;22388;52.432;20.662;2024-02-26T01:55:15;41.03;;;23.50;;
36359;SDS011;22388;52.432;20.662;2024-02-26T01:57:42;41.08;;;22.90;;
36359;SDS011;22388;52.432;20.662;2024-02-26T02:00:08;37.15;;;22.23;;
36359;SDS011;22388;52.432;20.662;2024-02-26T02:02:35;38.70;;;21.33;;
36359;SDS011;22388;52.432;20.662;2024-02-26T02:05:01;40.63;;;22.77;;
36359;SDS011;22388;52.432;20.662;2024-02-26T02:07:27;36.55;;;21.10;;
36359;SDS011;22388;52.432;20.662;2024-02-26T02:09:52;35.90;;;21.45;;
36359;SDS011;22388;52.432;20.662;2024-02-26T02:12:18;36.78;;;21.75;;
36359;SDS011;22388;52.432;20.662;2024-02-26T02:14:44;34.25;;;21.65;;
36359;SDS011;22388;52.432;20.662;2024-02-26T02:17:09;31.45;;;19.17;;
36359;SDS011;22388;52.432;20.662;2024-02-26T02:19:35;32.30;;;18.75;;
36359;SDS011;22388;52.432;20.662;2024-02-26T02:22:00;31.38;;;18.58;;
36359;SDS011;22388;52.432;20.662;2024-02-26T02:24:26;33.33;;;19.05;;
36359;SDS011;22388;52.432;20.662;2024-02-26T02:26:51;30.60;;;17.65;;
36359;SDS011;22388;52.432;20.662;2024-02-26T02:29:17;28.70;;;17.15;;
36359;SDS011;22388;52.432;20.662;2024-02-26T02:31:42;33.03;;;17.85;;
36359;SDS011;22388;52.432;20.662;2024-02-26T02:34:08;31.73;;;19.02;;
36359;SDS011;22388;52.432;20.662;2024-02-26T02:36:34;31.55;;;18.15;;
36359;SDS011;22388;52.432;20.662;2024-02-26T02:38:59;29.92;;;17.90;;
36359;SDS011;22388;52.432;20.662;2024-02-26T02:41:25;29.55;;;18.02;;
36359;SDS011;22388;52.432;20.662;2024-02-26T02:43:52;31.70;;;18.70;;
36359;SDS011;22388;52.432;20.662;2024-02-26T02:46:17;34.53;;;19.73;;
36359;SDS011;22388;52.432;20.662;2024-02-26T02:48:43;30.67;;;17.70;;
36359;SDS011;22388;52.432;20.662;2024-02-26T02:51:09;31.70;;;17.70;;
36359;SDS011;22388;52.432;20.662;2024-02-26T02:53:35;32.20;;;17.63;;
36359;SDS011;22388;52.432;20.662;2024-02-26T02:56:00;30.42;;;17.13;;
36359;SDS011;22388;52.432;20.662;2024-02-26T02:58:25;27.38;;;16.58;;
36359;SDS011;22388;52.432;20.662;2024-02-26T03:00:51;30.77;;;16.50;;
36359;SDS011;22388;52.432;20.662;2024-02-26T03:03:16;30.15;;;17.08;;
36359;SDS011;22388;52.432;20.662;2024-02-26T03:05:42;28.55;;;17.13;;
36359;SDS011;22388;52.432;20.662;2024-02-26T03:08:08;28.65;;;17.30;;
36359;SDS011;22388;52.432;20.662;2024-02-26T03:10:33;29.48;;;18.15;;
36359;SDS011;22388;52.432;20.662;2024-02-26T03:12:59;28.40;;;17.65;;
36359;SDS011;22388;52.432;20.662;2024-02-26T03:15:24;37.22;;;19.92;;
36359;SDS011;22388;52.432;20.662;2024-02-26T03:17:50;33.80;;;19.90;;
36359;SDS011;22388;52.432;20.662;2024-02-26T03:20:15;36.90;;;19.85;;
36359;SDS011;22388;52.432;20.662;2024-02-26T03:22:43;34.03;;;19.15;;
36359;SDS011;22388;52.432;20.662;2024-02-26T03:25:09;27.63;;;16.92;;
36359;SDS011;22388;52.432;20.662;2024-02-26T03:27:34;30.42;;;18.67;;
36359;SDS011;22388;52.432;20.662;2024-02-26T03:29:59;35.03;;;19.75;;
36359;SDS011;22388;52.432;20.662;2024-02-26T03:32:25;32.15;;;17.95;;
36359;SDS011;22388;52.432;20.662;2024-02-26T03:34:50;31.02;;;18.90;;
36359;SDS011;22388;52.432;20.662;2024-02-26T03:37:19;29.30;;;17.92;;
36359;SDS011;22388;52.432;20.662;2024-02-26T03:39:44;29.05;;;17.33;;
36359;SDS011;22388;52.432;20.662;2024-02-26T03:42:10;28.23;;;17.00;;
36359;SDS011;22388;52.432;20.662;2024-02-26T03:44:35;36.60;;;18.45;;
36359;SDS011;22388;52.432;20.662;2024-02-26T03:47:00;37.50;;;21.00;;
36359;SDS011;22388;52.432;20.662;2024-02-26T03:49:26;41.22;;;22.65;;
36359;SDS011;22388;52.432;20.662;2024-02-26T03:51:51;42.78;;;23.33;;
36359;SDS011;22388;52.432;20.662;2024-02-26T03:54:17;41.70;;;24.30;;
36359;SDS011;22388;52.432;20.662;2024-02-26T03:56:42;42.83;;;23.33;;
36359;SDS011;22388;52.432;20.662;2024-02-26T03:59:08;40.22;;;23.60;;
36359;SDS011;22388;52.432;20.662;2024-02-26T04:01:33;42.17;;;24.35;;
36359;SDS011;22388;52.432;20.662;2024-02-26T04:03:58;41.25;;;24.33;;
36359;SDS011;22388;52.432;20.662;2024-02-26T04:06:24;29.73;;;17.98;;
36359;SDS011;22388;52.432;20.662;2024-02-26T04:08:50;31.80;;;18.27;;
36359;SDS011;22388;52.432;20.662;2024-02-26T04:11:15;34.88;;;20.27;;
36359;SDS011;22388;52.432;20.662;2024-02-26T04:13:43;38.10;;;22.77;;
36359;SDS011;22388;52.432;20.662;2024-02-26T04:16:11;42.70;;;23.83;;
36359;SDS011;22388;52.432;20.662;2024-02-26T04:18:36;43.33;;;24.67;;
36359;SDS011;22388;52.432;20.662;2024-02-26T04:21:02;45.67;;;26.80;;
36359;SDS011;22388;52.432;20.662;2024-02-26T04:23:27;41.78;;;26.13;;
36359;SDS011;22388;52.432;20.662;2024-02-26T04:25:53;43.85;;;26.27;;
36359;SDS011;22388;52.432;20.662;2024-02-26T04:28:18;45.47;;;26.80;;
36359;SDS011;22388;52.432;20.662;2024-02-26T04:30:46;46.00;;;26.17;;
36359;SDS011;22388;52.432;20.662;2024-02-26T04:33:12;44.38;;;26.25;;
36359;SDS011;22388;52.432;20.662;2024-02-26T04:35:37;39.55;;;24.10;;
36359;SDS011;22388;52.432;20.662;2024-02-26T04:38:03;37.38;;;22.70;;
36359;SDS011;22388;52.432;20.662;2024-02-26T04:40:28;35.30;;;22.15;;
36359;SDS011;22388;52.432;20.662;2024-02-26T04:42:54;37.08;;;22.35;;
36359;SDS011;22388;52.432;20.662;2024-02-26T04:45:19;34.63;;;20.67;;
36359;SDS011;22388;52.432;20.662;2024-02-26T04:47:44;34.65;;;20.90;;
36359;SDS011;22388;52.432;20.662;2024-02-26T04:50:10;35.92;;;20.92;;
36359;SDS011;22388;52.432;20.662;2024-02-26T04:52:36;32.92;;;20.98;;
36359;SDS011;22388;52.432;20.662;2024-02-26T04:55:02;35.70;;;21.73;;
36359;SDS011;22388;52.432;20.662;2024-02-26T04:57:27;38.78;;;21.35;;
36359;SDS011;22388;52.432;20.662;2024-02-26T04:59:53;32.72;;;19.92;;
36359;SDS011;22388;52.432;20.662;2024-02-26T05:02:18;32.45;;;18.73;;
36359;SDS011;22388;52.432;20.662;2024-02-26T05:04:44;34.50;;;19.52;;
36359;SDS011;22388;52.432;20.662;2024-02-26T05:07:09;33.95;;;20.05;;
36359;SDS011;22388;52.432;20.662;2024-02-26T05:09:34;36.22;;;21.38;;
36359;SDS011;22388;52.432;20.662;2024-02-26T05:12:00;34.00;;;20.40;;
36359;SDS011;22388;52.432;20.662;2024-02-26T05:14:25;37.88;;;23.63;;
36359;SDS011;22388;52.432;20.662;2024-02-26T05:16:51;39.45;;;23.80;;
36359;SDS011;22388;52.432;20.662;2024-02-26T05:19:17;40.50;;;24.92;;
36359;SDS011;22388;52.432;20.662;2024-02-26T05:21:42;47.58;;;28.48;;
36359;SDS011;22388;52.432;20.662;2024-02-26T05:24:09;44.35;;;28.48;;
36359;SDS011;22388;52.432;20.662;2024-02-26T05:26:35;46.92;;;29.83;;
36359;SDS011;22388;52.432;20.662;2024-02-26T05:29:00;48.25;;;29.60;;
36359;SDS011;22388;52.432;20.662;2024-02-26T05:31:26;45.83;;;29.15;;
36359;SDS011;22388;52.432;20.662;2024-02-26T05:33:51;47.25;;;29.60;;
36359;SDS011;22388;52.432;20.662;2024-02-26T05:36:20;45.40;;;28.75;;
36359;SDS011;22388;52.432;20.662;2024-02-26T05:38:46;48.17;;;29.42;;
36359;SDS011;22388;52.432;20.662;2024-02-26T05:41:11;51.20;;;31.13;;
36359;SDS011;22388;52.432;20.662;2024-02-26T05:43:37;50.75;;;32.30;;
36359;SDS011;22388;52.432;20.662;2024-02-26T05:46:02;51.92;;;29.48;;
36359;SDS011;22388;52.432;20.662;2024-02-26T05:48:28;43.53;;;26.40;;
36359;SDS011;22388;52.432;20.662;2024-02-26T05:50:53;43.20;;;27.63;;
36359;SDS011;22388;52.432;20.662;2024-02-26T05:53:18;43.38;;;27.25;;
36359;SDS011;22388;52.432;20.662;2024-02-26T05:55:44;38.10;;;24.85;;
36359;SDS011;22388;52.432;20.662;2024-02-26T05:58:09;37.65;;;22.73;;
36359;SDS011;22388;52.432;20.662;2024-02-26T06:00:35;37.83;;;24.27;;
36359;SDS011;22388;52.432;20.662;2024-02-26T06:03:00;41.42;;;26.35;;
36359;SDS011;22388;52.432;20.662;2024-02-26T06:05:26;48.40;;;28.55;;
36359;SDS011;22388;52.432;20.662;2024-02-26T06:07:51;50.17;;;30.50;;
36359;SDS011;22388;52.432;20.662;2024-02-26T06:10:17;51.60;;;31.42;;
36359;SDS011;22388;52.432;20.662;2024-02-26T06:12:46;48.03;;;30.60;;
36359;SDS011;22388;52.432;20.662;2024-02-26T06:15:11;55.25;;;32.47;;
36359;SDS011;22388;52.432;20.662;2024-02-26T06:17:37;52.47;;;31.50;;
36359;SDS011;22388;52.432;20.662;2024-02-26T06:20:03;49.78;;;31.25;;
36359;SDS011;22388;52.432;20.662;2024-02-26T06:22:31;47.90;;;32.00;;
36359;SDS011;22388;52.432;20.662;2024-02-26T06:24:57;51.38;;;31.25;;
36359;SDS011;22388;52.432;20.662;2024-02-26T06:27:22;49.05;;;30.25;;
36359;SDS011;22388;52.432;20.662;2024-02-26T06:29:49;49.88;;;30.65;;
36359;SDS011;22388;52.432;20.662;2024-02-26T06:32:14;46.70;;;30.42;;
36359;SDS011;22388;52.432;20.662;2024-02-26T06:34:40;48.58;;;31.10;;
36359;SDS011;22388;52.432;20.662;2024-02-26T06:37:07;46.38;;;30.13;;
36359;SDS011;22388;52.432;20.662;2024-02-26T06:39:32;50.13;;;31.60;;
36359;SDS011;22388;52.432;20.662;2024-02-26T06:41:58;49.13;;;30.42;;
36359;SDS011;22388;52.432;20.662;2024-02-26T06:44:26;46.22;;;28.70;;
36359;SDS011;22388;52.432;20.662;2024-02-26T06:46:57;47.20;;;28.05;;
36359;SDS011;22388;52.432;20.662;2024-02-26T06:49:23;43.65;;;28.02;;
36359;SDS011;22388;52.432;20.662;2024-02-26T06:51:48;44.97;;;28.10;;
36359;SDS011;22388;52.432;20.662;2024-02-26T06:54:14;39.28;;;26.23;;
36359;SDS011;22388;52.432;20.662;2024-02-26T06:56:39;45.38;;;27.95;;
36359;SDS011;22388;52.432;20.662;2024-02-26T06:59:04;43.75;;;26.38;;
36359;SDS011;22388;52.432;20.662;2024-02-26T07:01:30;42.75;;;26.13;;
36359;SDS011;22388;52.432;20.662;2024-02-26T07:03:55;37.60;;;24.73;;
36359;SDS011;22388;52.432;20.662;2024-02-26T07:06:21;41.97;;;25.98;;
36359;SDS011;22388;52.432;20.662;2024-02-26T07:08:46;37.28;;;23.83;;
36359;SDS011;22388;52.432;20.662;2024-02-26T07:11:12;36.13;;;23.90;;
36359;SDS011;22388;52.432;20.662;2024-02-26T07:13:37;37.33;;;24.42;;
36359;SDS011;22388;52.432;20.662;2024-02-26T07:16:03;43.28;;;24.70;;
36359;SDS011;22388;52.432;20.662;2024-02-26T07:18:29;40.33;;;25.52;;
36359;SDS011;22388;52.432;20.662;2024-02-26T07:20:54;39.95;;;25.38;;
36359;SDS011;22388;52.432;20.662;2024-02-26T07:23:21;40.00;;;24.73;;
36359;SDS011;22388;52.432;20.662;2024-02-26T07:25:46;42.25;;;25.90;;
36359;SDS011;22388;52.432;20.662;2024-02-26T07:28:14;40.65;;;25.75;;
36359;SDS011;22388;52.432;20.662;2024-02-26T07:30:39;44.13;;;27.10;;
36359;SDS011;22388;52.432;20.662;2024-02-26T07:33:04;41.95;;;26.13;;
36359;SDS011;22388;52.432;20.662;2024-02-26T07:35:30;37.80;;;25.35;;
36359;SDS011;22388;52.432;20.662;2024-02-26T07:37:57;38.40;;;24.63;;
36359;SDS011;22388;52.432;20.662;2024-02-26T07:40:23;41.78;;;27.38;;
36359;SDS011;22388;52.432;20.662;2024-02-26T07:42:48;40.63;;;25.88;;
36359;SDS011;22388;52.432;20.662;2024-02-26T07:45:13;42.17;;;26.98;;
36359;SDS011;22388;52.432;20.662;2024-02-26T07:47:40;49.75;;;27.85;;
36359;SDS011;22388;52.432;20.662;2024-02-26T07:50:07;47.85;;;27.63;;
36359;SDS011;22388;52.432;20.662;2024-02-26T07:52:33;44.90;;;27.65;;
36359;SDS011;22388;52.432;20.662;2024-02-26T07:54:58;42.10;;;25.33;;
36359;SDS011;22388;52.432;20.662;2024-02-26T07:57:23;41.03;;;25.92;;
36359;SDS011;22388;52.432;20.662;2024-02-26T07:59:50;39.67;;;24.38;;
36359;SDS011;22388;52.432;20.662;2024-02-26T08:02:16;40.58;;;24.67;;
36359;SDS011;22388;52.432;20.662;2024-02-26T08:04:41;41.75;;;25.17;;
36359;SDS011;22388;52.432;20.662;2024-02-26T08:07:07;43.60;;;25.70;;
36359;SDS011;22388;52.432;20.662;2024-02-26T08:09:32;38.97;;;24.33;;
36359;SDS011;22388;52.432;20.662;2024-02-26T08:11:58;39.10;;;24.20;;
36359;SDS011;22388;52.432;20.662;2024-02-26T08:14:24;36.92;;;23.85;;
36359;SDS011;22388;52.432;20.662;2024-02-26T08:16:49;41.63;;;23.80;;
36359;SDS011;22388;52.432;20.662;2024-02-26T08:19:15;40.10;;;25.02;;
36359;SDS011;22388;52.432;20.662;2024-02-26T08:21:41;36.10;;;24.05;;
36359;SDS011;22388;52.432;20.662;2024-02-26T08:24:06;38.17;;;23.60;;
36359;SDS011;22388;52.432;20.662;2024-02-26T08:26:32;37.72;;;24.70;;
36359;SDS011;22388;52.432;20.662;2024-02-26T08:28:57;41.10;;;26.10;;
36359;SDS011;22388;52.432;20.662;2024-02-26T08:31:23;39.90;;;24.25;;
36359;SDS011;22388;52.432;20.662;2024-02-26T08:33:49;38.67;;;24.75;;
36359;SDS011;22388;52.432;20.662;2024-02-26T08:36:14;40.22;;;24.48;;
36359;SDS011;22388;52.432;20.662;2024-02-26T08:38:40;40.13;;;24.63;;
36359;SDS011;22388;52.432;20.662;2024-02-26T08:41:05;41.08;;;24.75;;
36359;SDS011;22388;52.432;20.662;2024-02-26T08:43:31;35.95;;;24.90;;
36359;SDS011;22388;52.432;20.662;2024-02-26T08:45:56;36.55;;;24.30;;
36359;SDS011;22388;52.432;20.662;2024-02-26T08:48:22;38.53;;;24.85;;
36359;SDS011;22388;52.432;20.662;2024-02-26T08:50:47;39.67;;;25.08;;
36359;SDS011;22388;52.432;20.662;2024-02-26T08:53:13;36.40;;;24.75;;
36359;SDS011;22388;52.432;20.662;2024-02-26T08:55:38;38.63;;;24.40;;
36359;SDS011;22388;52.432;20.662;2024-02-26T08:58:04;39.35;;;24.15;;
36359;SDS011;22388;52.432;20.662;2024-02-26T09:00:29;38.05;;;24.88;;
36359;SDS011;22388;52.432;20.662;2024-02-26T09:02:54;41.13;;;24.98;;
36359;SDS011;22388;52.432;20.662;2024-02-26T09:05:20;38.30;;;25.23;;
36359;SDS011;22388;52.432;20.662;2024-02-26T09:07:45;41.10;;;25.15;;
36359;SDS011;22388;52.432;20.662;2024-02-26T09:10:11;40.55;;;24.23;;
36359;SDS011;22388;52.432;20.662;2024-02-26T09:12:37;36.35;;;23.42;;
36359;SDS011;22388;52.432;20.662;2024-02-26T09:15:03;39.50;;;23.25;;
36359;SDS011;22388;52.432;20.662;2024-02-26T09:17:28;35.28;;;22.10;;
36359;SDS011;22388;52.432;20.662;2024-02-26T09:19:54;37.22;;;24.60;;
36359;SDS011;22388;52.432;20.662;2024-02-26T09:22:20;39.00;;;23.20;;
36359;SDS011;22388;52.432;20.662;2024-02-26T09:24:45;34.78;;;22.58;;
36359;SDS011;22388;52.432;20.662;2024-02-26T09:27:10;37.05;;;22.25;;
36359;SDS011;22388;52.432;20.662;2024-02-26T09:29:36;36.50;;;23.13;;
36359;SDS011;22388;52.432;20.662;2024-02-26T09:32:01;34.15;;;21.83;;
36359;SDS011;22388;52.432;20.662;2024-02-26T09:34:27;34.13;;;22.38;;
36359;SDS011;22388;52.432;20.662;2024-02-26T09:36:53;37.45;;;21.63;;
36359;SDS011;22388;52.432;20.662;2024-02-26T09:39:19;32.20;;;20.50;;
36359;SDS011;22388;52.432;20.662;2024-02-26T09:41:47;34.78;;;21.30;;
36359;SDS011;22388;52.432;20.662;2024-02-26T09:44:12;32.03;;;19.05;;
36359;SDS011;22388;52.432;20.662;2024-02-26T09:46:40;38.67;;;20.70;;
36359;SDS011;22388;52.432;20.662;2024-02-26T09:49:05;30.75;;;18.67;;
36359;SDS011;22388;52.432;20.662;2024-02-26T09:51:31;35.35;;;19.27;;
36359;SDS011;22388;52.432;20.662;2024-02-26T09:53:57;32.08;;;18.25;;
36359;SDS011;22388;52.432;20.662;2024-02-26T09:56:24;33.00;;;18.33;;
36359;SDS011;22388;52.432;20.662;2024-02-26T09:58:50;31.55;;;17.80;;
36359;SDS011;22388;52.432;20.662;2024-02-26T10:01:19;31.58;;;18.00;;
36359;SDS011;22388;52.432;20.662;2024-02-26T10:03:45;31.60;;;18.95;;
36359;SDS011;22388;52.432;20.662;2024-02-26T10:06:14;28.20;;;18.20;;
36359;SDS011;22388;52.432;20.662;2024-02-26T10:08:39;34.67;;;17.08;;
36359;SDS011;22388;52.432;20.662;2024-02-26T10:11:05;24.25;;;16.23;;
36359;SDS011;22388;52.432;20.662;2024-02-26T10:13:31;27.98;;;15.52;;
36359;SDS011;22388;52.432;20.662;2024-02-26T10:15:57;26.30;;;16.67;;
36359;SDS011;22388;52.432;20.662;2024-02-26T10:18:23;27.73;;;16.42;;
36359;SDS011;22388;52.432;20.662;2024-02-26T10:20:59;26.73;;;15.75;;
36359;SDS011;22388;52.432;20.662;2024-02-26T10:23:25;23.17;;;14.57;;
36359;SDS011;22388;52.432;20.662;2024-02-26T10:25:54;27.55;;;15.13;;
36359;SDS011;22388;52.432;20.662;2024-02-26T10:28:20;28.15;;;15.40;;
36359;SDS011;22388;52.432;20.662;2024-02-26T10:30:46;26.45;;;15.02;;
36359;SDS011;22388;52.432;20.662;2024-02-26T10:33:12;25.95;;;15.13;;
36359;SDS011;22388;52.432;20.662;2024-02-26T10:35:38;22.08;;;14.07;;
36359;SDS011;22388;52.432;20.662;2024-02-26T10:38:06;24.08;;;14.40;;
36359;SDS011;22388;52.432;20.662;2024-02-26T10:40:32;22.50;;;14.07;;
36359;SDS011;22388;52.432;20.662;2024-02-26T10:42:57;22.92;;;14.05;;
36359;SDS011;22388;52.432;20.662;2024-02-26T10:45:23;24.02;;;14.60;;
36359;SDS011;22388;52.432;20.662;2024-02-26T10:47:48;24.98;;;13.98;;
36359;SDS011;22388;52.432;20.662;2024-02-26T10:50:14;21.60;;;13.70;;
36359;SDS011;22388;52.432;20.662;2024-02-26T10:52:41;23.35;;;13.80;;
36359;SDS011;22388;52.432;20.662;2024-02-26T10:55:07;19.90;;;12.95;;
36359;SDS011;22388;52.432;20.662;2024-02-26T10:57:33;22.10;;;14.10;;
36359;SDS011;22388;52.432;20.662;2024-02-26T11:00:01;22.88;;;13.60;;
36359;SDS011;22388;52.432;20.662;2024-02-26T11:02:29;19.95;;;12.02;;
36359;SDS011;22388;52.432;20.662;2024-02-26T11:04:55;22.02;;;13.30;;
36359;SDS011;22388;52.432;20.662;2024-02-26T11:07:25;20.63;;;13.13;;
36359;SDS011;22388;52.432;20.662;2024-02-26T11:09:51;19.48;;;12.43;;
36359;SDS011;22388;52.432;20.662;2024-02-26T11:12:18;22.63;;;12.63;;
36359;SDS011;22388;52.432;20.662;2024-02-26T11:14:44;22.67;;;12.75;;
36359;SDS011;22388;52.432;20.662;2024-02-26T11:17:11;20.55;;;11.80;;
36359;SDS011;22388;52.432;20.662;2024-02-26T11:19:38;19.58;;;12.82;;
36359;SDS011;22388;52.432;20.662;2024-02-26T11:22:04;21.33;;;12.18;;
36359;SDS011;22388;52.432;20.662;2024-02-26T11:24:29;17.98;;;12.20;;
36359;SDS011;22388;52.432;20.662;2024-02-26T11:26:55;17.92;;;12.20;;
36359;SDS011;22388;52.432;20.662;2024-02-26T11:29:27;18.70;;;12.85;;
36359;SDS011;22388;52.432;20.662;2024-02-26T11:31:54;16.85;;;11.82;;
36359;SDS011;22388;52.432;20.662;2024-02-26T11:34:19;19.27;;;11.90;;
36359;SDS011;22388;52.432;20.662;2024-02-26T11:36:45;15.55;;;10.85;;
36359;SDS011;22388;52.432;20.662;2024-02-26T11:39:11;15.70;;;11.27;;
36359;SDS011;22388;52.432;20.662;2024-02-26T11:41:38;18.85;;;11.65;;
36359;SDS011;22388;52.432;20.662;2024-02-26T11:44:03;20.80;;;14.30;;
36359;SDS011;22388;52.432;20.662;2024-02-26T11:46:41;18.65;;;14.05;;
36359;SDS011;22388;52.432;20.662;2024-02-26T11:51:51;20.77;;;16.48;;
36359;SDS011;22388;52.432;20.662;2024-02-26T11:57:01;21.05;;;15.55;;
36359;SDS011;22388;52.432;20.662;2024-02-26T11:59:39;23.52;;;17.45;;
36359;SDS011;22388;52.432;20.662;2024-02-26T12:02:06;22.10;;;16.77;;
36359;SDS011;22388;52.432;20.662;2024-02-26T12:04:32;21.90;;;16.70;;
36359;SDS011;22388;52.432;20.662;2024-02-26T12:07:00;24.80;;;16.67;;
36359;SDS011;22388;52.432;20.662;2024-02-26T12:09:36;21.25;;;16.73;;
36359;SDS011;22388;52.432;20.662;2024-02-26T12:12:02;22.90;;;16.85;;
36359;SDS011;22388;52.432;20.662;2024-02-26T12:14:32;25.10;;;17.33;;
36359;SDS011;22388;52.432;20.662;2024-02-26T12:16:58;21.63;;;16.02;;
36359;SDS011;22388;52.432;20.662;2024-02-26T12:19:24;23.02;;;15.80;;
36359;SDS011;22388;52.432;20.662;2024-02-26T12:21:52;20.27;;;15.43;;
36359;SDS011;22388;52.432;20.662;2024-02-26T12:24:19;23.52;;;15.90;;
36359;SDS011;22388;52.432;20.662;2024-02-26T12:26:46;19.60;;;15.75;;
36359;SDS011;22388;52.432;20.662;2024-02-26T12:29:11;19.13;;;15.20;;
36359;SDS011;22388;52.432;20.662;2024-02-26T12:31:37;21.02;;;15.77;;
36359;SDS011;22388;52.432;20.662;2024-02-26T12:34:04;19.50;;;14.32;;
36359;SDS011;22388;52.432;20.662;2024-02-26T12:36:29;19.83;;;13.70;;
36359;SDS011;22388;52.432;20.662;2024-02-26T12:38:55;18.30;;;13.32;;
36359;SDS011;22388;52.432;20.662;2024-02-26T12:41:21;18.73;;;13.65;;
36359;SDS011;22388;52.432;20.662;2024-02-26T12:43:47;17.33;;;12.90;;
36359;SDS011;22388;52.432;20.662;2024-02-26T12:46:12;17.73;;;11.93;;
36359;SDS011;22388;52.432;20.662;2024-02-26T12:48:39;15.40;;;11.52;;
36359;SDS011;22388;52.432;20.662;2024-02-26T12:51:05;19.33;;;13.52;;
36359;SDS011;22388;52.432;20.662;2024-02-26T12:53:33;16.75;;;13.05;;
36359;SDS011;22388;52.432;20.662;2024-02-26T12:56:03;16.13;;;11.30;;
36359;SDS011;22388;52.432;20.662;2024-02-26T12:58:29;16.95;;;12.73;;
36359;SDS011;22388;52.432;20.662;2024-02-26T13:00:55;16.40;;;12.77;;
36359;SDS011;22388;52.432;20.662;2024-02-26T13:03:21;14.50;;;11.95;;
36359;SDS011;22388;52.432;20.662;2024-02-26T13:05:47;16.33;;;11.73;;
36359;SDS011;22388;52.432;20.662;2024-02-26T13:08:19;14.88;;;11.15;;
36359;SDS011;22388;52.432;20.662;2024-02-26T13:10:47;15.48;;;11.10;;
36359;SDS011;22388;52.432;20.662;2024-02-26T13:13:17;13.95;;;10.57;;
36359;SDS011;22388;52.432;20.662;2024-02-26T13:15:43;14.43;;;10.20;;
36359;SDS011;22388;52.432;20.662;2024-02-26T13:18:09;12.40;;;9.00;;
36359;SDS011;22388;52.432;20.662;2024-02-26T13:20:35;14.82;;;9.80;;
36359;SDS011;22388;52.432;20.662;2024-02-26T13:23:04;16.13;;;10.57;;
36359;SDS011;22388;52.432;20.662;2024-02-26T13:25:31;14.75;;;10.15;;
36359;SDS011;22388;52.432;20.662;2024-02-26T13:28:08;14.07;;;9.43;;
36359;SDS011;22388;52.432;20.662;2024-02-26T13:30:34;12.10;;;8.90;;
36359;SDS011;22388;52.432;20.662;2024-02-26T13:33:10;14.88;;;8.55;;
36359;SDS011;22388;52.432;20.662;2024-02-26T13:35:36;11.38;;;8.70;;
36359;SDS011;22388;52.432;20.662;2024-02-26T13:38:02;12.43;;;8.73;;
36359;SDS011;22388;52.432;20.662;2024-02-26T13:40:28;14.48;;;8.82;;
36359;SDS011;22388;52.432;20.662;2024-02-26T13:42:54;11.98;;;8.50;;
36359;SDS011;22388;52.432;20.662;2024-02-26T13:45:19;11.48;;;8.40;;
36359;SDS011;22388;52.432;20.662;2024-02-26T13:47:45;12.73;;;8.43;;
36359;SDS011;22388;52.432;20.662;2024-02-26T13:50:10;11.32;;;8.15;;
36359;SDS011;22388;52.432;20.662;2024-02-26T13:52:36;11.90;;;8.05;;
36359;SDS011;22388;52.432;20.662;2024-02-26T13:55:01;14.35;;;8.40;;
36359;SDS011;22388;52.432;20.662;2024-02-26T13:57:28;11.82;;;8.10;;
36359;SDS011;22388;52.432;20.662;2024-02-26T13:59:54;15.48;;;8.32;;
36359;SDS011;22388;52.432;20.662;2024-02-26T14:02:19;12.73;;;7.80;;
36359;SDS011;22388;52.432;20.662;2024-02-26T14:04:45;11.07;;;7.70;;
36359;SDS011;22388;52.432;20.662;2024-02-26T14:07:11;10.18;;;6.88;;